Terminal Aerodrome Forecast
Issued by NWS

Home | Current Version | Previous Version | Text Only | Print | Product List | Glossary Off
Versions: 1 2 3 4 5 6 7 8 9 10 11 12 13 14 15 16 17

840
FTUS43 KBIS 252152 AAB
TAFMOT
TAF AMD
KMOT 252152Z 2522/2618 04011KT P6SM OVC035
     FM252300 05011KT P6SM -SHRA OVC035
     FM260100 04011KT 4SM -RA BR OVC025
     FM260600 04008KT 3SM -RA BR BKN007 OVC015=

USA.gov is the U.S. government's official web portal to all federal, state and local government web resources and services.